createdAt,value
2022-09-10T00:03:29.790Z,21.90
2022-09-10T00:08:34.321Z,21.90
2022-09-10T00:13:40.658Z,21.90
2022-09-10T00:18:45.116Z,21.90
2022-09-10T00:23:48.693Z,21.90
2022-09-10T00:28:55.115Z,21.90
2022-09-10T00:33:59.543Z,21.90
2022-09-10T00:39:05.087Z,21.90
2022-09-10T00:44:48.167Z,21.90
2022-09-10T00:49:56.175Z,21.90
2022-09-10T00:54:59.668Z,21.90
2022-09-10T01:00:09.920Z,22.00
2022-09-10T01:05:13.663Z,21.90
2022-09-10T01:10:21.688Z,21.90
2022-09-10T01:15:35.986Z,21.90
2022-09-10T01:20:57.616Z,21.90
2022-09-10T01:26:12.556Z,21.90
2022-09-10T01:31:23.721Z,22.00
2022-09-10T01:36:33.443Z,21.90
2022-09-10T01:41:37.058Z,21.90
2022-09-10T01:46:54.013Z,21.90
2022-09-10T01:52:13.775Z,22.00
2022-09-10T01:57:27.750Z,22.00
2022-09-10T02:02:37.538Z,22.00
2022-09-10T02:07:40.799Z,22.00
2022-09-10T02:12:43.822Z,21.90
2022-09-10T02:17:49.168Z,22.00
2022-09-10T02:22:56.850Z,22.00
2022-09-10T02:27:59.870Z,22.00
2022-09-10T02:33:04.262Z,22.00
2022-09-10T02:38:08.176Z,22.00
2022-09-10T02:43:11.168Z,21.90
2022-09-10T02:48:15.489Z,21.90
2022-09-10T02:53:18.434Z,22.00
2022-09-10T02:58:21.663Z,21.90
2022-09-10T03:03:26.806Z,21.90
2022-09-10T03:08:29.774Z,21.90
2022-09-10T03:13:32.744Z,21.90
2022-09-10T03:18:37.227Z,22.00
2022-09-10T03:23:40.986Z,22.00
2022-09-10T03:28:44.887Z,21.90
2022-09-10T03:33:49.511Z,21.90
2022-09-10T03:38:52.891Z,22.00
2022-09-10T03:43:55.999Z,21.90
2022-09-10T03:49:02.356Z,22.00
2022-09-10T03:54:06.070Z,21.90
2022-09-10T03:59:09.035Z,21.90
2022-09-10T04:04:14.867Z,21.90
2022-09-10T04:09:17.791Z,21.90
2022-09-10T04:14:20.757Z,22.00
2022-09-10T04:19:25.075Z,21.90
2022-09-10T04:24:28.020Z,21.90
2022-09-10T04:29:32.320Z,21.90
2022-09-10T04:34:37.539Z,22.00
2022-09-10T04:39:40.522Z,21.90
2022-09-10T04:44:43.492Z,21.90
2022-09-10T04:49:47.821Z,21.90
2022-09-10T04:54:50.891Z,21.90
2022-09-10T04:59:54.052Z,21.90
2022-09-10T05:04:58.348Z,21.90
2022-09-10T05:10:01.284Z,21.90
2022-09-10T05:15:04.411Z,21.90
2022-09-10T05:20:10.623Z,21.90
2022-09-10T05:25:13.569Z,21.90
2022-09-10T05:30:18.071Z,21.90
2022-09-10T05:35:22.371Z,21.90
2022-09-10T05:40:25.806Z,21.90
2022-09-10T05:45:28.800Z,21.90
2022-09-10T05:50:33.277Z,21.90
2022-09-10T05:55:36.204Z,22.00
2022-09-10T06:00:39.163Z,21.90
2022-09-10T06:05:50.289Z,21.90
2022-09-10T06:10:57.819Z,21.90
2022-09-10T06:16:01.687Z,21.90
2022-09-10T06:21:08.814Z,21.90
2022-09-10T06:26:13.247Z,22.00
2022-09-10T06:31:19.572Z,21.90
2022-09-10T06:36:23.957Z,21.90
2022-09-10T06:41:27.057Z,22.00
2022-09-10T06:47:10.677Z,21.90
2022-09-10T06:51:54.657Z,22.00
2022-09-10T06:56:57.954Z,22.00
2022-09-10T07:02:02.294Z,22.00
2022-09-10T07:07:06.826Z,22.00
2022-09-10T07:12:09.807Z,21.90
2022-09-10T07:17:12.763Z,21.90
2022-09-10T07:22:17.135Z,21.80
2022-09-10T07:27:20.133Z,21.70
2022-09-10T07:32:23.120Z,21.70
2022-09-10T07:37:27.422Z,21.60
2022-09-10T07:42:30.373Z,21.60
2022-09-10T07:47:33.337Z,21.60
2022-09-10T07:52:37.833Z,21.50
2022-09-10T07:57:40.992Z,21.50
2022-09-10T08:02:45.094Z,21.50
2022-09-10T08:07:49.381Z,21.50
2022-09-10T08:12:52.376Z,21.50
2022-09-10T08:17:55.623Z,21.50
2022-09-10T08:23:00.738Z,21.50
2022-09-10T08:28:03.803Z,21.50
2022-09-10T08:33:06.827Z,21.50
2022-09-10T08:38:12.715Z,21.50
2022-09-10T08:43:16.783Z,21.50
2022-09-10T08:48:23.274Z,21.50
2022-09-10T08:53:35.008Z,21.50
2022-09-10T08:58:45.008Z,21.50
2022-09-10T09:03:49.309Z,21.50
2022-09-10T09:08:54.991Z,21.50
2022-09-10T09:14:13.255Z,21.50
2022-09-10T09:19:26.445Z,21.50
2022-09-10T09:24:44.333Z,21.60
2022-09-10T09:29:52.591Z,21.50
2022-09-10T09:34:58.252Z,21.60
2022-09-10T09:40:15.058Z,21.60
2022-09-10T09:45:25.295Z,21.60
2022-09-10T09:50:30.792Z,21.60
2022-09-10T09:55:39.864Z,21.70
2022-09-10T10:00:44.326Z,21.60
2022-09-10T10:05:48.715Z,21.60
2022-09-10T10:10:54.168Z,21.60
2022-09-10T10:15:57.172Z,21.60
2022-09-10T10:21:15.935Z,21.70
2022-09-10T10:26:30.358Z,21.70
2022-09-10T10:31:42.354Z,21.70
2022-09-10T10:36:53.273Z,21.80
2022-09-10T10:42:05.335Z,21.80
2022-09-10T10:47:35.578Z,21.80
2022-09-10T10:52:46.697Z,21.70
2022-09-10T10:58:03.509Z,21.70
2022-09-10T11:03:16.008Z,21.70
2022-09-10T11:08:23.294Z,21.80
2022-09-10T11:13:32.650Z,21.90
2022-09-10T11:18:43.735Z,21.90
2022-09-10T11:23:51.306Z,22.00
2022-09-10T11:29:04.740Z,22.10
2022-09-10T11:34:15.241Z,22.10
2022-09-10T11:39:23.529Z,22.20
2022-09-10T11:44:38.763Z,22.20
2022-09-10T11:49:49.279Z,22.20
2022-09-10T11:54:52.534Z,22.30
2022-09-10T12:00:15.706Z,22.30
2022-09-10T12:05:25.787Z,22.30
2022-09-10T12:10:33.423Z,22.30
2022-09-10T12:15:39.226Z,22.30
2022-09-10T12:20:48.707Z,22.30
2022-09-10T12:25:59.435Z,22.40
2022-09-10T12:31:04.765Z,22.40
2022-09-10T12:36:07.764Z,22.40
2022-09-10T12:41:14.482Z,22.40
2022-09-10T12:46:22.765Z,22.40
2022-09-10T12:51:34.117Z,22.40
2022-09-10T12:57:12.822Z,22.40
2022-09-10T13:02:27.950Z,22.40
2022-09-10T13:07:40.324Z,22.40
2022-09-10T13:12:45.202Z,22.40
2022-09-10T13:18:23.917Z,22.40
2022-09-10T13:23:48.671Z,22.40
2022-09-10T13:29:05.774Z,22.40
2022-09-10T13:34:34.543Z,22.40
2022-09-10T13:40:02.791Z,22.40
2022-09-10T13:45:21.753Z,22.40
2022-09-10T13:50:28.859Z,22.30
2022-09-10T13:55:32.718Z,22.40
2022-09-10T14:00:41.203Z,22.40
2022-09-10T14:05:50.493Z,22.40
2022-09-10T14:10:57.982Z,22.40
2022-09-10T14:16:03.406Z,22.40
2022-09-10T14:21:08.212Z,22.40
2022-09-10T14:26:14.777Z,22.40
2022-09-10T14:31:23.042Z,22.50
2022-09-10T14:36:35.395Z,22.40
2022-09-10T14:41:38.651Z,22.40
2022-09-10T14:46:51.398Z,22.40
2022-09-10T14:51:56.044Z,22.40
2022-09-10T14:57:02.436Z,22.40
2022-09-10T15:02:17.485Z,22.40
2022-09-10T15:07:23.588Z,22.40
2022-09-10T15:12:28.628Z,22.40
2022-09-10T15:17:32.670Z,22.40
2022-09-10T15:22:37.032Z,22.40
2022-09-10T15:27:40.045Z,22.40
2022-09-10T15:32:43.049Z,22.40
2022-09-10T15:37:47.366Z,22.40
2022-09-10T15:42:50.435Z,22.40
2022-09-10T15:47:54.845Z,22.40
2022-09-10T15:52:59.425Z,22.40
2022-09-10T15:58:03.265Z,22.40
2022-09-10T16:03:06.257Z,22.40
2022-09-10T16:08:10.575Z,22.40
2022-09-10T16:13:13.519Z,22.40
2022-09-10T16:18:16.535Z,22.40
2022-09-10T16:23:20.962Z,22.40
2022-09-10T16:28:24.391Z,22.40
2022-09-10T16:33:27.586Z,22.40
2022-09-10T16:38:32.313Z,22.30
2022-09-10T16:43:36.786Z,22.30
2022-09-10T16:48:41.586Z,22.30
2022-09-10T16:53:48.699Z,22.20
2022-09-10T16:58:52.009Z,22.20
2022-09-10T17:03:55.216Z,22.20
2022-09-10T17:09:01.289Z,22.10
2022-09-10T17:14:04.542Z,22.10
2022-09-10T17:19:10.987Z,22.00
2022-09-10T17:24:15.747Z,22.00
2022-09-10T17:29:21.120Z,22.00
2022-09-10T17:34:25.256Z,22.00
2022-09-10T17:39:29.732Z,21.90
2022-09-10T17:44:32.998Z,21.90
2022-09-10T17:49:37.899Z,21.90
2022-09-10T17:54:43.010Z,21.90
2022-09-10T17:59:46.042Z,21.80
2022-09-10T18:04:51.008Z,21.90
2022-09-10T18:09:55.314Z,21.90
2022-09-10T18:14:58.264Z,21.90
2022-09-10T18:20:01.209Z,22.00
2022-09-10T18:25:06.706Z,22.10
2022-09-10T18:30:11.496Z,22.10
2022-09-10T18:35:14.612Z,22.10
2022-09-10T18:40:20.201Z,22.10
2022-09-10T18:45:23.171Z,22.20
2022-09-10T18:50:27.747Z,22.10
2022-09-10T18:55:32.100Z,22.20
2022-09-10T19:00:35.069Z,22.20
2022-09-10T19:05:38.305Z,22.20
2022-09-10T19:10:42.624Z,22.20
2022-09-10T19:15:55.464Z,22.20
2022-09-10T19:21:02.892Z,22.20
2022-09-10T19:26:10.027Z,22.30
2022-09-10T19:31:15.311Z,22.30
2022-09-10T19:36:19.125Z,22.30
2022-09-10T19:41:25.545Z,22.30
2022-09-10T19:46:29.135Z,22.30
2022-09-10T19:51:34.082Z,22.30
2022-09-10T19:56:42.499Z,22.30
2022-09-10T20:01:46.085Z,22.30
2022-09-10T20:06:50.338Z,22.30
2022-09-10T20:11:54.646Z,22.40
2022-09-10T20:16:57.908Z,22.30
2022-09-10T20:22:00.871Z,22.30
2022-09-10T20:27:05.535Z,22.30
2022-09-10T20:32:08.507Z,22.30
2022-09-10T20:37:11.468Z,22.20
2022-09-10T20:42:16.825Z,22.20
2022-09-10T20:47:19.812Z,22.20
2022-09-10T20:52:23.379Z,22.20
2022-09-10T20:57:30.190Z,22.20
2022-09-10T21:02:33.530Z,22.10
2022-09-10T21:07:36.585Z,22.10
2022-09-10T21:12:40.900Z,22.10
2022-09-10T21:17:43.982Z,22.10
2022-09-10T21:22:46.905Z,22.10
2022-09-10T21:27:51.210Z,22.10
2022-09-10T21:32:54.167Z,22.00
2022-09-10T21:37:57.127Z,22.10
2022-09-10T21:43:04.321Z,22.00
2022-09-10T21:48:08.443Z,22.00
2022-09-10T21:53:11.432Z,22.00
2022-09-10T21:58:15.927Z,22.00
2022-09-10T22:03:19.460Z,22.00
2022-09-10T22:08:22.438Z,22.00
2022-09-10T22:13:26.730Z,22.00
2022-09-10T22:18:29.687Z,22.00
2022-09-10T22:23:34.148Z,21.90
2022-09-10T22:28:39.063Z,22.00
2022-09-10T22:33:43.738Z,22.00
2022-09-10T22:38:50.175Z,22.00
2022-09-10T22:43:55.108Z,22.00
2022-09-10T22:48:58.793Z,22.00
2022-09-10T22:54:02.281Z,22.00
2022-09-10T22:59:07.561Z,21.90
2022-09-10T23:04:11.299Z,22.00
2022-09-10T23:09:17.376Z,22.00
2022-09-10T23:14:22.166Z,22.00
2022-09-10T23:19:27.270Z,22.00
2022-09-10T23:24:30.237Z,21.90
2022-09-10T23:29:35.126Z,21.90
2022-09-10T23:34:38.083Z,21.90
2022-09-10T23:39:41.043Z,21.90
2022-09-10T23:44:45.360Z,21.90
2022-09-10T23:49:48.303Z,21.90
2022-09-10T23:54:51.372Z,21.90
2022-09-10T23:59:55.969Z,21.90
